sensor_id;sensor_type;location;lat;lon;timestamp;P1;durP1;ratioP1;P2;durP2;ratioP2
40871;SDS011;26591;43.264;26.940;2024-02-04T00:01:51;20.08;;;11.13;;
40871;SDS011;26591;43.264;26.940;2024-02-04T00:04:16;12.45;;;8.57;;
40871;SDS011;26591;43.264;26.940;2024-02-04T00:06:42;14.20;;;8.32;;
40871;SDS011;26591;43.264;26.940;2024-02-04T00:09:07;13.68;;;8.60;;
40871;SDS011;26591;43.264;26.940;2024-02-04T00:11:33;14.20;;;8.65;;
40871;SDS011;26591;43.264;26.940;2024-02-04T00:13:59;11.55;;;8.00;;
40871;SDS011;26591;43.264;26.940;2024-02-04T00:16:26;15.35;;;9.40;;
40871;SDS011;26591;43.264;26.940;2024-02-04T00:18:52;13.85;;;9.70;;
40871;SDS011;26591;43.264;26.940;2024-02-04T00:21:18;12.10;;;8.70;;
40871;SDS011;26591;43.264;26.940;2024-02-04T00:23:44;13.05;;;8.70;;
40871;SDS011;26591;43.264;26.940;2024-02-04T00:26:09;13.45;;;8.38;;
40871;SDS011;26591;43.264;26.940;2024-02-04T00:28:35;12.63;;;8.85;;
40871;SDS011;26591;43.264;26.940;2024-02-04T00:31:00;15.82;;;9.23;;
40871;SDS011;26591;43.264;26.940;2024-02-04T00:33:26;14.93;;;9.70;;
40871;SDS011;26591;43.264;26.940;2024-02-04T00:35:51;16.23;;;8.88;;
40871;SDS011;26591;43.264;26.940;2024-02-04T00:38:17;13.45;;;8.52;;
40871;SDS011;26591;43.264;26.940;2024-02-04T00:40:42;13.88;;;9.15;;
40871;SDS011;26591;43.264;26.940;2024-02-04T00:43:08;14.40;;;9.38;;
40871;SDS011;26591;43.264;26.940;2024-02-04T00:45:33;12.10;;;9.27;;
40871;SDS011;26591;43.264;26.940;2024-02-04T00:47:59;14.13;;;9.85;;
40871;SDS011;26591;43.264;26.940;2024-02-04T00:50:24;17.30;;;10.55;;
40871;SDS011;26591;43.264;26.940;2024-02-04T00:52:49;14.93;;;10.45;;
40871;SDS011;26591;43.264;26.940;2024-02-04T00:55:16;16.15;;;9.50;;
40871;SDS011;26591;43.264;26.940;2024-02-04T00:57:41;16.08;;;9.63;;
40871;SDS011;26591;43.264;26.940;2024-02-04T01:00:07;23.92;;;11.60;;
40871;SDS011;26591;43.264;26.940;2024-02-04T01:02:33;36.28;;;17.02;;
40871;SDS011;26591;43.264;26.940;2024-02-04T01:04:59;29.35;;;14.40;;
40871;SDS011;26591;43.264;26.940;2024-02-04T01:07:24;17.15;;;9.73;;
40871;SDS011;26591;43.264;26.940;2024-02-04T01:09:50;22.90;;;12.23;;
40871;SDS011;26591;43.264;26.940;2024-02-04T01:12:15;32.28;;;13.90;;
40871;SDS011;26591;43.264;26.940;2024-02-04T01:14:41;21.05;;;9.85;;
40871;SDS011;26591;43.264;26.940;2024-02-04T01:17:06;14.70;;;9.55;;
40871;SDS011;26591;43.264;26.940;2024-02-04T01:19:32;12.30;;;8.55;;
40871;SDS011;26591;43.264;26.940;2024-02-04T01:21:58;14.13;;;8.60;;
40871;SDS011;26591;43.264;26.940;2024-02-04T01:24:24;12.43;;;9.32;;
40871;SDS011;26591;43.264;26.940;2024-02-04T01:26:50;12.13;;;8.35;;
40871;SDS011;26591;43.264;26.940;2024-02-04T01:29:15;14.43;;;8.10;;
40871;SDS011;26591;43.264;26.940;2024-02-04T01:31:41;10.75;;;8.02;;
40871;SDS011;26591;43.264;26.940;2024-02-04T01:34:07;10.75;;;8.25;;
40871;SDS011;26591;43.264;26.940;2024-02-04T01:36:32;16.45;;;7.43;;
40871;SDS011;26591;43.264;26.940;2024-02-04T01:38:58;13.68;;;7.82;;
40871;SDS011;26591;43.264;26.940;2024-02-04T01:41:23;12.18;;;8.23;;
40871;SDS011;26591;43.264;26.940;2024-02-04T01:43:51;11.50;;;7.88;;
40871;SDS011;26591;43.264;26.940;2024-02-04T01:49:16;11.25;;;7.82;;
40871;SDS011;26591;43.264;26.940;2024-02-04T01:51:41;10.38;;;7.15;;
40871;SDS011;26591;43.264;26.940;2024-02-04T01:54:08;10.27;;;7.38;;
40871;SDS011;26591;43.264;26.940;2024-02-04T01:56:33;11.45;;;7.45;;
40871;SDS011;26591;43.264;26.940;2024-02-04T01:58:59;11.88;;;7.10;;
40871;SDS011;26591;43.264;26.940;2024-02-04T02:01:26;12.77;;;7.78;;
40871;SDS011;26591;43.264;26.940;2024-02-04T02:03:51;17.85;;;9.98;;
40871;SDS011;26591;43.264;26.940;2024-02-04T02:06:17;14.25;;;8.65;;
40871;SDS011;26591;43.264;26.940;2024-02-04T02:08:42;10.13;;;6.90;;
40871;SDS011;26591;43.264;26.940;2024-02-04T02:11:18;18.90;;;10.60;;
40871;SDS011;26591;43.264;26.940;2024-02-04T02:13:52;20.17;;;9.18;;
40871;SDS011;26591;43.264;26.940;2024-02-04T02:16:26;17.10;;;9.00;;
40871;SDS011;26591;43.264;26.940;2024-02-04T02:18:57;13.73;;;7.43;;
40871;SDS011;26591;43.264;26.940;2024-02-04T02:21:50;12.20;;;6.72;;
40871;SDS011;26591;43.264;26.940;2024-02-04T02:24:38;15.55;;;8.60;;
40871;SDS011;26591;43.264;26.940;2024-02-04T02:27:08;9.50;;;6.60;;
40871;SDS011;26591;43.264;26.940;2024-02-04T02:29:33;25.38;;;12.35;;
40871;SDS011;26591;43.264;26.940;2024-02-04T02:32:00;18.98;;;10.57;;
40871;SDS011;26591;43.264;26.940;2024-02-04T02:34:28;11.63;;;7.05;;
40871;SDS011;26591;43.264;26.940;2024-02-04T02:36:56;9.60;;;6.53;;
40871;SDS011;26591;43.264;26.940;2024-02-04T02:39:40;14.05;;;8.43;;
40871;SDS011;26591;43.264;26.940;2024-02-04T02:42:13;13.45;;;6.80;;
40871;SDS011;26591;43.264;26.940;2024-02-04T02:44:43;15.13;;;8.98;;
40871;SDS011;26591;43.264;26.940;2024-02-04T02:47:10;9.73;;;6.90;;
40871;SDS011;26591;43.264;26.940;2024-02-04T02:49:38;9.70;;;6.70;;
40871;SDS011;26591;43.264;26.940;2024-02-04T02:52:04;10.32;;;7.30;;
40871;SDS011;26591;43.264;26.940;2024-02-04T02:54:31;10.80;;;6.93;;
40871;SDS011;26591;43.264;26.940;2024-02-04T02:56:57;9.40;;;6.03;;
40871;SDS011;26591;43.264;26.940;2024-02-04T02:59:22;10.77;;;7.22;;
40871;SDS011;26591;43.264;26.940;2024-02-04T03:01:48;9.60;;;6.75;;
40871;SDS011;26591;43.264;26.940;2024-02-04T03:04:13;12.50;;;8.43;;
40871;SDS011;26591;43.264;26.940;2024-02-04T03:06:39;8.88;;;6.45;;
40871;SDS011;26591;43.264;26.940;2024-02-04T03:09:07;9.32;;;6.75;;
40871;SDS011;26591;43.264;26.940;2024-02-04T03:11:33;9.27;;;7.07;;
40871;SDS011;26591;43.264;26.940;2024-02-04T03:13:58;8.30;;;6.10;;
40871;SDS011;26591;43.264;26.940;2024-02-04T03:16:23;11.57;;;7.53;;
40871;SDS011;26591;43.264;26.940;2024-02-04T03:18:49;7.15;;;5.55;;
40871;SDS011;26591;43.264;26.940;2024-02-04T03:21:15;10.63;;;5.78;;
40871;SDS011;26591;43.264;26.940;2024-02-04T03:23:42;10.35;;;6.55;;
40871;SDS011;26591;43.264;26.940;2024-02-04T03:26:08;6.93;;;5.55;;
40871;SDS011;26591;43.264;26.940;2024-02-04T03:28:34;9.32;;;6.28;;
40871;SDS011;26591;43.264;26.940;2024-02-04T03:31:00;8.75;;;6.35;;
40871;SDS011;26591;43.264;26.940;2024-02-04T03:33:25;6.35;;;4.85;;
40871;SDS011;26591;43.264;26.940;2024-02-04T03:35:51;7.85;;;5.30;;
40871;SDS011;26591;43.264;26.940;2024-02-04T03:38:16;10.75;;;6.85;;
40871;SDS011;26591;43.264;26.940;2024-02-04T03:40:42;6.68;;;4.43;;
40871;SDS011;26591;43.264;26.940;2024-02-04T03:43:10;10.27;;;5.68;;
40871;SDS011;26591;43.264;26.940;2024-02-04T03:45:36;11.57;;;6.63;;
40871;SDS011;26591;43.264;26.940;2024-02-04T03:48:02;13.57;;;7.43;;
40871;SDS011;26591;43.264;26.940;2024-02-04T03:50:28;8.60;;;6.25;;
40871;SDS011;26591;43.264;26.940;2024-02-04T03:52:53;8.90;;;6.45;;
40871;SDS011;26591;43.264;26.940;2024-02-04T03:55:19;8.90;;;5.32;;
40871;SDS011;26591;43.264;26.940;2024-02-04T03:57:44;8.38;;;5.50;;
40871;SDS011;26591;43.264;26.940;2024-02-04T04:00:10;7.50;;;5.43;;
40871;SDS011;26591;43.264;26.940;2024-02-04T04:02:36;8.10;;;5.40;;
40871;SDS011;26591;43.264;26.940;2024-02-04T04:05:01;7.45;;;5.20;;
40871;SDS011;26591;43.264;26.940;2024-02-04T04:07:27;7.65;;;5.72;;
40871;SDS011;26591;43.264;26.940;2024-02-04T04:09:52;8.73;;;6.25;;
40871;SDS011;26591;43.264;26.940;2024-02-04T04:12:18;33.33;;;19.23;;
40871;SDS011;26591;43.264;26.940;2024-02-04T04:14:43;29.38;;;15.68;;
40871;SDS011;26591;43.264;26.940;2024-02-04T04:17:08;14.70;;;9.05;;
40871;SDS011;26591;43.264;26.940;2024-02-04T04:19:34;13.57;;;8.43;;
40871;SDS011;26591;43.264;26.940;2024-02-04T04:22:02;36.28;;;18.95;;
40871;SDS011;26591;43.264;26.940;2024-02-04T04:24:28;10.65;;;7.22;;
40871;SDS011;26591;43.264;26.940;2024-02-04T04:26:54;14.10;;;7.75;;
40871;SDS011;26591;43.264;26.940;2024-02-04T04:29:21;19.17;;;11.07;;
40871;SDS011;26591;43.264;26.940;2024-02-04T04:31:46;16.33;;;9.55;;
40871;SDS011;26591;43.264;26.940;2024-02-04T04:34:12;10.80;;;7.75;;
40871;SDS011;26591;43.264;26.940;2024-02-04T04:36:37;10.25;;;6.65;;
40871;SDS011;26591;43.264;26.940;2024-02-04T04:39:03;12.50;;;6.45;;
40871;SDS011;26591;43.264;26.940;2024-02-04T04:41:28;8.60;;;6.68;;
40871;SDS011;26591;43.264;26.940;2024-02-04T04:43:54;8.68;;;6.47;;
40871;SDS011;26591;43.264;26.940;2024-02-04T04:46:19;11.90;;;6.40;;
40871;SDS011;26591;43.264;26.940;2024-02-04T04:48:45;7.25;;;5.85;;
40871;SDS011;26591;43.264;26.940;2024-02-04T04:51:12;9.70;;;6.30;;
40871;SDS011;26591;43.264;26.940;2024-02-04T04:53:37;8.43;;;6.18;;
40871;SDS011;26591;43.264;26.940;2024-02-04T04:56:05;7.22;;;5.70;;
40871;SDS011;26591;43.264;26.940;2024-02-04T04:58:31;8.95;;;6.00;;
40871;SDS011;26591;43.264;26.940;2024-02-04T05:00:56;9.35;;;5.93;;
40871;SDS011;26591;43.264;26.940;2024-02-04T05:03:22;9.55;;;5.97;;
40871;SDS011;26591;43.264;26.940;2024-02-04T05:08:47;7.38;;;5.55;;
40871;SDS011;26591;43.264;26.940;2024-02-04T05:11:12;5.82;;;4.50;;
40871;SDS011;26591;43.264;26.940;2024-02-04T05:13:41;8.70;;;6.43;;
40871;SDS011;26591;43.264;26.940;2024-02-04T05:16:06;8.43;;;6.20;;
40871;SDS011;26591;43.264;26.940;2024-02-04T05:18:32;10.40;;;6.82;;
40871;SDS011;26591;43.264;26.940;2024-02-04T05:20:57;10.25;;;6.70;;
40871;SDS011;26591;43.264;26.940;2024-02-04T05:23:23;10.27;;;6.78;;
40871;SDS011;26591;43.264;26.940;2024-02-04T05:25:48;9.82;;;5.95;;
40871;SDS011;26591;43.264;26.940;2024-02-04T05:28:14;9.60;;;6.63;;
40871;SDS011;26591;43.264;26.940;2024-02-04T05:30:39;7.03;;;5.28;;
40871;SDS011;26591;43.264;26.940;2024-02-04T05:33:05;7.78;;;5.32;;
40871;SDS011;26591;43.264;26.940;2024-02-04T05:35:31;9.80;;;6.80;;
40871;SDS011;26591;43.264;26.940;2024-02-04T05:37:56;8.68;;;6.18;;
40871;SDS011;26591;43.264;26.940;2024-02-04T05:40:22;8.23;;;4.97;;
40871;SDS011;26591;43.264;26.940;2024-02-04T05:42:47;6.60;;;5.32;;
40871;SDS011;26591;43.264;26.940;2024-02-04T05:45:13;12.50;;;7.32;;
40871;SDS011;26591;43.264;26.940;2024-02-04T05:47:38;7.28;;;5.50;;
40871;SDS011;26591;43.264;26.940;2024-02-04T05:50:04;8.18;;;5.07;;
40871;SDS011;26591;43.264;26.940;2024-02-04T05:52:30;7.22;;;5.82;;
40871;SDS011;26591;43.264;26.940;2024-02-04T05:54:55;6.63;;;5.50;;
40871;SDS011;26591;43.264;26.940;2024-02-04T05:57:21;8.38;;;6.22;;
40871;SDS011;26591;43.264;26.940;2024-02-04T05:59:46;11.30;;;6.85;;
40871;SDS011;26591;43.264;26.940;2024-02-04T06:02:13;8.60;;;5.97;;
40871;SDS011;26591;43.264;26.940;2024-02-04T06:04:39;6.60;;;5.68;;
40871;SDS011;26591;43.264;26.940;2024-02-04T06:07:05;9.20;;;6.35;;
40871;SDS011;26591;43.264;26.940;2024-02-04T06:09:32;8.38;;;6.30;;
40871;SDS011;26591;43.264;26.940;2024-02-04T06:12:01;10.52;;;5.50;;
40871;SDS011;26591;43.264;26.940;2024-02-04T06:14:27;9.23;;;5.65;;
40871;SDS011;26591;43.264;26.940;2024-02-04T06:16:52;10.43;;;7.72;;
40871;SDS011;26591;43.264;26.940;2024-02-04T06:19:18;15.65;;;9.18;;
40871;SDS011;26591;43.264;26.940;2024-02-04T06:21:43;10.55;;;6.93;;
40871;SDS011;26591;43.264;26.940;2024-02-04T06:24:09;6.95;;;5.50;;
40871;SDS011;26591;43.264;26.940;2024-02-04T06:26:37;8.20;;;6.13;;
40871;SDS011;26591;43.264;26.940;2024-02-04T06:29:03;14.13;;;8.75;;
40871;SDS011;26591;43.264;26.940;2024-02-04T06:31:28;8.60;;;6.35;;
40871;SDS011;26591;43.264;26.940;2024-02-04T06:33:54;6.47;;;5.40;;
40871;SDS011;26591;43.264;26.940;2024-02-04T06:36:19;9.02;;;6.75;;
40871;SDS011;26591;43.264;26.940;2024-02-04T06:38:45;10.10;;;6.65;;
40871;SDS011;26591;43.264;26.940;2024-02-04T06:41:10;7.65;;;6.07;;
40871;SDS011;26591;43.264;26.940;2024-02-04T06:43:40;8.10;;;5.65;;
40871;SDS011;26591;43.264;26.940;2024-02-04T06:46:05;8.50;;;6.40;;
40871;SDS011;26591;43.264;26.940;2024-02-04T06:48:31;8.60;;;5.50;;
40871;SDS011;26591;43.264;26.940;2024-02-04T06:50:57;10.05;;;6.20;;
40871;SDS011;26591;43.264;26.940;2024-02-04T06:53:23;9.60;;;6.60;;
40871;SDS011;26591;43.264;26.940;2024-02-04T06:55:49;8.32;;;5.70;;
40871;SDS011;26591;43.264;26.940;2024-02-04T06:58:15;8.88;;;5.90;;
40871;SDS011;26591;43.264;26.940;2024-02-04T07:00:40;10.23;;;7.47;;
40871;SDS011;26591;43.264;26.940;2024-02-04T07:03:06;12.65;;;7.43;;
40871;SDS011;26591;43.264;26.940;2024-02-04T07:05:33;11.38;;;6.47;;
40871;SDS011;26591;43.264;26.940;2024-02-04T07:07:59;8.77;;;6.43;;
40871;SDS011;26591;43.264;26.940;2024-02-04T07:10:26;11.20;;;6.25;;
40871;SDS011;26591;43.264;26.940;2024-02-04T07:12:52;8.95;;;6.63;;
40871;SDS011;26591;43.264;26.940;2024-02-04T07:15:17;8.63;;;6.20;;
40871;SDS011;26591;43.264;26.940;2024-02-04T07:17:43;8.55;;;6.50;;
40871;SDS011;26591;43.264;26.940;2024-02-04T07:20:08;11.88;;;6.97;;
40871;SDS011;26591;43.264;26.940;2024-02-04T07:22:34;8.52;;;5.95;;
40871;SDS011;26591;43.264;26.940;2024-02-04T07:25:00;10.15;;;5.50;;
40871;SDS011;26591;43.264;26.940;2024-02-04T07:27:26;9.70;;;6.13;;
40871;SDS011;26591;43.264;26.940;2024-02-04T07:29:51;8.57;;;6.30;;
40871;SDS011;26591;43.264;26.940;2024-02-04T07:32:19;8.77;;;5.93;;
40871;SDS011;26591;43.264;26.940;2024-02-04T07:34:46;8.45;;;6.05;;
40871;SDS011;26591;43.264;26.940;2024-02-04T07:37:11;11.75;;;5.75;;
40871;SDS011;26591;43.264;26.940;2024-02-04T07:39:37;7.45;;;5.25;;
40871;SDS011;26591;43.264;26.940;2024-02-04T07:42:02;15.88;;;5.15;;
40871;SDS011;26591;43.264;26.940;2024-02-04T07:44:28;6.80;;;4.88;;
40871;SDS011;26591;43.264;26.940;2024-02-04T07:46:55;9.15;;;5.88;;
40871;SDS011;26591;43.264;26.940;2024-02-04T07:49:21;10.73;;;6.68;;
40871;SDS011;26591;43.264;26.940;2024-02-04T07:51:46;8.55;;;5.82;;
40871;SDS011;26591;43.264;26.940;2024-02-04T07:54:12;7.68;;;5.65;;
40871;SDS011;26591;43.264;26.940;2024-02-04T07:56:37;8.77;;;5.43;;
40871;SDS011;26591;43.264;26.940;2024-02-04T07:59:03;12.02;;;5.63;;
40871;SDS011;26591;43.264;26.940;2024-02-04T08:01:29;9.38;;;5.75;;
40871;SDS011;26591;43.264;26.940;2024-02-04T08:03:55;7.70;;;5.40;;
40871;SDS011;26591;43.264;26.940;2024-02-04T08:06:21;6.75;;;5.07;;
40871;SDS011;26591;43.264;26.940;2024-02-04T08:08:46;9.30;;;6.63;;
40871;SDS011;26591;43.264;26.940;2024-02-04T08:11:16;13.85;;;8.35;;
40871;SDS011;26591;43.264;26.940;2024-02-04T08:13:42;10.53;;;5.57;;
40871;SDS011;26591;43.264;26.940;2024-02-04T08:16:08;8.55;;;5.40;;
40871;SDS011;26591;43.264;26.940;2024-02-04T08:18:39;6.03;;;5.38;;
40871;SDS011;26591;43.264;26.940;2024-02-04T08:21:05;7.85;;;4.82;;
40871;SDS011;26591;43.264;26.940;2024-02-04T08:23:30;6.78;;;5.25;;
40871;SDS011;26591;43.264;26.940;2024-02-04T08:25:56;7.85;;;4.97;;
40871;SDS011;26591;43.264;26.940;2024-02-04T08:28:22;7.57;;;5.53;;
40871;SDS011;26591;43.264;26.940;2024-02-04T08:30:48;5.75;;;4.15;;
40871;SDS011;26591;43.264;26.940;2024-02-04T08:33:14;8.32;;;4.50;;
40871;SDS011;26591;43.264;26.940;2024-02-04T08:35:43;10.15;;;5.82;;
40871;SDS011;26591;43.264;26.940;2024-02-04T08:38:08;8.23;;;4.35;;
40871;SDS011;26591;43.264;26.940;2024-02-04T08:40:33;10.45;;;5.03;;
40871;SDS011;26591;43.264;26.940;2024-02-04T08:42:59;6.68;;;4.97;;
40871;SDS011;26591;43.264;26.940;2024-02-04T08:45:29;11.27;;;4.72;;
40871;SDS011;26591;43.264;26.940;2024-02-04T08:47:54;9.88;;;6.45;;
40871;SDS011;26591;43.264;26.940;2024-02-04T08:50:20;11.13;;;5.18;;
40871;SDS011;26591;43.264;26.940;2024-02-04T08:52:45;7.05;;;4.78;;
40871;SDS011;26591;43.264;26.940;2024-02-04T08:55:11;11.63;;;6.38;;
40871;SDS011;26591;43.264;26.940;2024-02-04T08:57:39;6.20;;;4.60;;
40871;SDS011;26591;43.264;26.940;2024-02-04T09:00:05;6.82;;;4.38;;
40871;SDS011;26591;43.264;26.940;2024-02-04T09:02:34;6.50;;;4.85;;
40871;SDS011;26591;43.264;26.940;2024-02-04T09:05:00;15.68;;;9.40;;
40871;SDS011;26591;43.264;26.940;2024-02-04T09:07:26;7.60;;;5.03;;
40871;SDS011;26591;43.264;26.940;2024-02-04T09:09:51;7.60;;;5.00;;
40871;SDS011;26591;43.264;26.940;2024-02-04T09:12:17;12.07;;;5.82;;
40871;SDS011;26591;43.264;26.940;2024-02-04T09:14:43;11.45;;;6.07;;
40871;SDS011;26591;43.264;26.940;2024-02-04T09:17:08;26.08;;;9.85;;
40871;SDS011;26591;43.264;26.940;2024-02-04T09:19:35;15.32;;;9.15;;
40871;SDS011;26591;43.264;26.940;2024-02-04T09:22:01;15.98;;;7.47;;
40871;SDS011;26591;43.264;26.940;2024-02-04T09:24:27;10.63;;;5.55;;
40871;SDS011;26591;43.264;26.940;2024-02-04T09:26:53;13.10;;;5.60;;
40871;SDS011;26591;43.264;26.940;2024-02-04T09:29:18;10.23;;;5.97;;
40871;SDS011;26591;43.264;26.940;2024-02-04T09:31:44;10.90;;;5.50;;
40871;SDS011;26591;43.264;26.940;2024-02-04T09:34:10;13.23;;;6.53;;
40871;SDS011;26591;43.264;26.940;2024-02-04T09:36:35;9.77;;;5.10;;
40871;SDS011;26591;43.264;26.940;2024-02-04T09:39:01;7.88;;;5.25;;
40871;SDS011;26591;43.264;26.940;2024-02-04T09:41:26;6.82;;;5.13;;
40871;SDS011;26591;43.264;26.940;2024-02-04T09:43:52;7.30;;;4.82;;
40871;SDS011;26591;43.264;26.940;2024-02-04T09:46:18;13.00;;;4.85;;
40871;SDS011;26591;43.264;26.940;2024-02-04T09:48:45;8.40;;;5.45;;
40871;SDS011;26591;43.264;26.940;2024-02-04T09:51:11;6.22;;;4.72;;
40871;SDS011;26591;43.264;26.940;2024-02-04T09:53:36;6.32;;;4.50;;
40871;SDS011;26591;43.264;26.940;2024-02-04T09:56:07;7.68;;;5.30;;
40871;SDS011;26591;43.264;26.940;2024-02-04T09:58:35;10.30;;;5.97;;
40871;SDS011;26591;43.264;26.940;2024-02-04T10:01:01;7.55;;;4.43;;
40871;SDS011;26591;43.264;26.940;2024-02-04T10:03:29;14.98;;;4.40;;
40871;SDS011;26591;43.264;26.940;2024-02-04T10:05:55;13.77;;;5.25;;
40871;SDS011;26591;43.264;26.940;2024-02-04T10:08:21;7.95;;;4.80;;
40871;SDS011;26591;43.264;26.940;2024-02-04T10:10:47;5.93;;;4.65;;
40871;SDS011;26591;43.264;26.940;2024-02-04T10:13:13;8.50;;;5.03;;
40871;SDS011;26591;43.264;26.940;2024-02-04T10:15:38;8.00;;;4.55;;
40871;SDS011;26591;43.264;26.940;2024-02-04T10:18:04;13.65;;;5.28;;
40871;SDS011;26591;43.264;26.940;2024-02-04T10:20:33;10.73;;;5.00;;
40871;SDS011;26591;43.264;26.940;2024-02-04T10:22:59;12.68;;;5.20;;
40871;SDS011;26591;43.264;26.940;2024-02-04T10:25:27;6.75;;;4.82;;
40871;SDS011;26591;43.264;26.940;2024-02-04T10:27:52;6.30;;;4.45;;
40871;SDS011;26591;43.264;26.940;2024-02-04T10:30:19;4.78;;;3.72;;
40871;SDS011;26591;43.264;26.940;2024-02-04T10:32:51;8.40;;;5.35;;
40871;SDS011;26591;43.264;26.940;2024-02-04T10:35:17;8.13;;;4.65;;
40871;SDS011;26591;43.264;26.940;2024-02-04T10:37:45;15.27;;;4.82;;
40871;SDS011;26591;43.264;26.940;2024-02-04T10:40:11;8.07;;;4.05;;
40871;SDS011;26591;43.264;26.940;2024-02-04T10:42:37;8.60;;;3.90;;
40871;SDS011;26591;43.264;26.940;2024-02-04T10:45:07;5.43;;;4.30;;
40871;SDS011;26591;43.264;26.940;2024-02-04T10:47:34;9.32;;;5.00;;
40871;SDS011;26591;43.264;26.940;2024-02-04T10:50:03;5.90;;;4.10;;
40871;SDS011;26591;43.264;26.940;2024-02-04T10:52:28;6.38;;;4.43;;
40871;SDS011;26591;43.264;26.940;2024-02-04T10:55:08;9.93;;;4.78;;
40871;SDS011;26591;43.264;26.940;2024-02-04T11:00:04;7.63;;;4.43;;
40871;SDS011;26591;43.264;26.940;2024-02-04T11:02:36;13.10;;;4.57;;
40871;SDS011;26591;43.264;26.940;2024-02-04T11:05:04;8.68;;;4.93;;
40871;SDS011;26591;43.264;26.940;2024-02-04T11:07:33;14.20;;;6.60;;
40871;SDS011;26591;43.264;26.940;2024-02-04T11:10:00;6.20;;;4.32;;
40871;SDS011;26591;43.264;26.940;2024-02-04T11:12:27;7.55;;;3.95;;
40871;SDS011;26591;43.264;26.940;2024-02-04T11:14:54;6.57;;;4.72;;
40871;SDS011;26591;43.264;26.940;2024-02-04T11:17:51;5.65;;;4.13;;
40871;SDS011;26591;43.264;26.940;2024-02-04T11:25:54;9.73;;;4.47;;
40871;SDS011;26591;43.264;26.940;2024-02-04T11:28:23;5.30;;;3.72;;
40871;SDS011;26591;43.264;26.940;2024-02-04T11:30:50;10.52;;;4.60;;
40871;SDS011;26591;43.264;26.940;2024-02-04T11:33:20;7.47;;;4.70;;
40871;SDS011;26591;43.264;26.940;2024-02-04T11:38:23;5.50;;;4.05;;
40871;SDS011;26591;43.264;26.940;2024-02-04T11:41:02;5.70;;;3.55;;
40871;SDS011;26591;43.264;26.940;2024-02-04T11:43:28;5.63;;;3.95;;
40871;SDS011;26591;43.264;26.940;2024-02-04T11:45:54;14.07;;;4.50;;
40871;SDS011;26591;43.264;26.940;2024-02-04T11:48:19;6.05;;;3.15;;
40871;SDS011;26591;43.264;26.940;2024-02-04T11:50:51;8.73;;;4.70;;
40871;SDS011;26591;43.264;26.940;2024-02-04T11:53:18;11.07;;;4.18;;
40871;SDS011;26591;43.264;26.940;2024-02-04T11:55:44;4.85;;;3.53;;
40871;SDS011;26591;43.264;26.940;2024-02-04T11:58:10;5.80;;;3.88;;
40871;SDS011;26591;43.264;26.940;2024-02-04T12:00:37;7.82;;;3.67;;
40871;SDS011;26591;43.264;26.940;2024-02-04T12:03:07;4.55;;;3.53;;
40871;SDS011;26591;43.264;26.940;2024-02-04T12:05:34;10.55;;;3.83;;
40871;SDS011;26591;43.264;26.940;2024-02-04T12:08:04;4.90;;;2.75;;
40871;SDS011;26591;43.264;26.940;2024-02-04T12:12:58;9.13;;;3.00;;
40871;SDS011;26591;43.264;26.940;2024-02-04T12:15:24;8.13;;;3.50;;
40871;SDS011;26591;43.264;26.940;2024-02-04T12:17:50;9.05;;;2.80;;
40871;SDS011;26591;43.264;26.940;2024-02-04T12:20:16;4.88;;;3.85;;
40871;SDS011;26591;43.264;26.940;2024-02-04T12:22:42;11.27;;;3.67;;
40871;SDS011;26591;43.264;26.940;2024-02-04T12:25:08;7.20;;;3.30;;
40871;SDS011;26591;43.264;26.940;2024-02-04T12:27:34;7.03;;;4.00;;
40871;SDS011;26591;43.264;26.940;2024-02-04T12:29:59;10.35;;;3.50;;
40871;SDS011;26591;43.264;26.940;2024-02-04T12:32:25;4.57;;;2.97;;
40871;SDS011;26591;43.264;26.940;2024-02-04T12:34:53;9.85;;;3.47;;
40871;SDS011;26591;43.264;26.940;2024-02-04T12:37:21;6.00;;;3.00;;
40871;SDS011;26591;43.264;26.940;2024-02-04T12:39:47;7.70;;;3.67;;
40871;SDS011;26591;43.264;26.940;2024-02-04T12:42:16;5.40;;;3.40;;
40871;SDS011;26591;43.264;26.940;2024-02-04T12:44:49;8.75;;;5.00;;
40871;SDS011;26591;43.264;26.940;2024-02-04T12:47:19;6.78;;;3.45;;
40871;SDS011;26591;43.264;26.940;2024-02-04T12:49:44;11.32;;;3.85;;
40871;SDS011;26591;43.264;26.940;2024-02-04T12:52:10;4.25;;;3.10;;
40871;SDS011;26591;43.264;26.940;2024-02-04T12:54:42;8.25;;;3.50;;
40871;SDS011;26591;43.264;26.940;2024-02-04T12:57:09;9.25;;;2.47;;
40871;SDS011;26591;43.264;26.940;2024-02-04T12:59:37;5.35;;;2.58;;
40871;SDS011;26591;43.264;26.940;2024-02-04T13:02:04;6.13;;;2.90;;
40871;SDS011;26591;43.264;26.940;2024-02-04T13:04:38;15.82;;;3.42;;
40871;SDS011;26591;43.264;26.940;2024-02-04T13:07:08;8.30;;;3.33;;
40871;SDS011;26591;43.264;26.940;2024-02-04T13:09:35;4.65;;;2.90;;
40871;SDS011;26591;43.264;26.940;2024-02-04T13:12:04;8.00;;;3.80;;
40871;SDS011;26591;43.264;26.940;2024-02-04T13:14:31;8.82;;;3.97;;
40871;SDS011;26591;43.264;26.940;2024-02-04T13:16:57;8.18;;;4.50;;
40871;SDS011;26591;43.264;26.940;2024-02-04T13:19:22;6.65;;;3.30;;
40871;SDS011;26591;43.264;26.940;2024-02-04T13:21:48;9.05;;;4.10;;
40871;SDS011;26591;43.264;26.940;2024-02-04T13:24:14;7.70;;;4.15;;
40871;SDS011;26591;43.264;26.940;2024-02-04T13:26:39;10.55;;;4.53;;
40871;SDS011;26591;43.264;26.940;2024-02-04T13:29:05;5.75;;;3.53;;
40871;SDS011;26591;43.264;26.940;2024-02-04T13:31:30;5.38;;;3.80;;
40871;SDS011;26591;43.264;26.940;2024-02-04T13:33:56;5.07;;;2.75;;
40871;SDS011;26591;43.264;26.940;2024-02-04T13:36:22;12.95;;;4.40;;
40871;SDS011;26591;43.264;26.940;2024-02-04T13:38:48;12.27;;;8.52;;
40871;SDS011;26591;43.264;26.940;2024-02-04T13:41:14;18.02;;;9.20;;
40871;SDS011;26591;43.264;26.940;2024-02-04T13:43:39;21.92;;;11.13;;
40871;SDS011;26591;43.264;26.940;2024-02-04T13:46:05;21.40;;;12.38;;
40871;SDS011;26591;43.264;26.940;2024-02-04T13:48:30;7.55;;;5.05;;
40871;SDS011;26591;43.264;26.940;2024-02-04T13:50:56;8.77;;;6.28;;
40871;SDS011;26591;43.264;26.940;2024-02-04T13:53:22;7.18;;;4.45;;
40871;SDS011;26591;43.264;26.940;2024-02-04T13:55:48;10.20;;;6.07;;
40871;SDS011;26591;43.264;26.940;2024-02-04T13:58:15;7.82;;;4.57;;
40871;SDS011;26591;43.264;26.940;2024-02-04T14:00:43;6.85;;;4.32;;
40871;SDS011;26591;43.264;26.940;2024-02-04T14:03:08;9.82;;;6.15;;
40871;SDS011;26591;43.264;26.940;2024-02-04T14:05:34;9.52;;;4.18;;
40871;SDS011;26591;43.264;26.940;2024-02-04T14:07:59;8.38;;;4.68;;
40871;SDS011;26591;43.264;26.940;2024-02-04T14:10:25;15.40;;;6.50;;
40871;SDS011;26591;43.264;26.940;2024-02-04T14:12:50;12.95;;;5.07;;
40871;SDS011;26591;43.264;26.940;2024-02-04T14:15:16;7.45;;;4.78;;
40871;SDS011;26591;43.264;26.940;2024-02-04T14:17:42;7.95;;;3.63;;
40871;SDS011;26591;43.264;26.940;2024-02-04T14:20:07;11.82;;;3.70;;
40871;SDS011;26591;43.264;26.940;2024-02-04T14:22:34;5.90;;;4.00;;
40871;SDS011;26591;43.264;26.940;2024-02-04T14:25:00;10.02;;;4.47;;
40871;SDS011;26591;43.264;26.940;2024-02-04T14:27:27;8.75;;;4.72;;
40871;SDS011;26591;43.264;26.940;2024-02-04T14:29:54;15.32;;;5.18;;
40871;SDS011;26591;43.264;26.940;2024-02-04T14:32:20;9.38;;;4.57;;
40871;SDS011;26591;43.264;26.940;2024-02-04T14:34:46;10.82;;;6.03;;
40871;SDS011;26591;43.264;26.940;2024-02-04T14:37:12;14.57;;;9.05;;
40871;SDS011;26591;43.264;26.940;2024-02-04T14:39:38;23.15;;;11.23;;
40871;SDS011;26591;43.264;26.940;2024-02-04T14:42:04;10.73;;;5.47;;
40871;SDS011;26591;43.264;26.940;2024-02-04T14:44:30;8.55;;;4.72;;